Time;durP1;ratioP1;P1;durP2;ratioP2;P2;SDS_P1;SDS_P2;PMS_P1;PMS_P2;Temp;Humidity;BMP_temperature;BMP_pressure;BME280_temperature;BME280_humidity;BME280_pressure;Samples;Min_cycle;Max_cycle;Signal;HPM_P1;HPM_P2
2021/10/02 00:31:17;;;;;;;;;8.00;6.00;;;;;17.01;nan;100661.59;4712247;29;46108;-83
2021/10/02 00:34:17;;;;;;;;;4.67;4.00;;;;;16.91;nan;100670.69;4896326;28;44800;-84
2021/10/02 00:37:04;;;;;;;;;5.67;5.33;;;;;16.98;nan;100649.06;4894990;28;45473;-83
2021/10/02 00:45:43;;;;;;;;;7.33;6.33;;;;;16.80;nan;100635.88;4880082;29;45410;-84
2021/10/02 00:48:15;;;;;;;;;8.67;7.00;;;;;16.78;nan;100656.47;4894430;28;45490;-85
2021/10/02 00:50:58;;;;;;;;;5.33;5.33;;;;;16.97;nan;100651.81;4893875;28;45794;-84
2021/10/02 00:56:35;;;;;;;;;7.67;7.67;;;;;16.66;nan;100645.91;4892911;28;45482;-84
2021/10/02 00:58:57;;;;;;;;;7.33;7.33;;;;;16.69;nan;100646.75;4891946;29;45431;-84
2021/10/02 01:01:36;;;;;;;;;10.67;10.67;;;;;16.80;nan;100641.22;4876424;28;47144;-84
2021/10/02 01:04:38;;;;;;;;;10.33;5.67;;;;;16.96;nan;100652.69;4876433;28;45498;-84
2021/10/02 01:07:25;;;;;;;;;7.00;7.00;;;;;16.83;nan;100624.25;4895181;28;44830;-84
2021/10/02 01:10:16;;;;;;;;;10.00;8.00;;;;;17.10;nan;100674.00;4894743;28;45508;-84
2021/10/02 01:16:31;;;;;;;;;9.00;9.00;;;;;17.09;nan;100674.94;4874314;28;44929;-84
2021/10/02 01:19:06;;;;;;;;;7.00;6.00;;;;;17.14;nan;100679.31;4859221;29;45518;-84
2021/10/02 01:21:45;;;;;;;;;11.00;7.00;;;;;17.07;nan;100682.13;4874033;28;45566;-84
2021/10/02 01:24:32;;;;;;;;;8.67;8.00;;;;;17.14;nan;100678.44;4873640;28;46794;-84
2021/10/02 01:27:11;;;;;;;;;;;;;;;;;;;;;
2021/10/02 01:29:41;;;;;;;;;8.67;8.67;;;;;16.68;nan;100633.34;4874480;28;67583;-84
2021/10/02 01:32:16;;;;;;;;;9.67;7.67;;;;;16.93;nan;100660.81;4875371;28;45391;-84
2021/10/02 01:48:17;;;;;;;;;9.00;9.00;;;;;16.82;nan;100628.72;4877253;28;45701;-84
2021/10/02 01:51:23;;;;;;;;;8.33;8.33;;;;;17.00;nan;100623.06;4877510;28;44814;-84
2021/10/02 01:53:49;;;;;;;;;9.67;8.33;;;;;16.79;nan;100626.03;4877743;29;46085;-85
2021/10/02 01:56:22;;;;;;;;;5.67;5.67;;;;;16.90;nan;100626.81;4878079;28;45390;-84
2021/10/02 01:58:52;;;;;;;;;6.67;6.33;;;;;16.90;nan;100621.44;4862794;29;45303;-84
2021/10/02 02:01:21;;;;;;;;;7.67;7.67;;;;;16.67;nan;100602.91;4877749;29;44993;-84
2021/10/02 02:03:57;;;;;;;;;8.33;8.33;;;;;16.79;nan;100597.38;4877457;28;45593;-83
2021/10/02 02:06:56;;;;;;;;;7.67;7.67;;;;;16.98;nan;100607.91;4861703;29;46887;-84
2021/10/02 02:09:30;;;;;;;;;4.67;4.00;;;;;16.96;nan;100620.47;4877240;28;45201;-84
2021/10/02 02:12:01;;;;;;;;;8.00;6.00;;;;;16.70;nan;100575.13;4878028;28;44808;-85
2021/10/02 02:14:36;;;;;;;;;7.00;6.67;;;;;16.69;nan;100576.94;4861396;29;45482;-84
2021/10/02 02:17:07;;;;;;;;;5.00;4.00;;;;;16.79;nan;100599.19;4860435;29;46978;-84
2021/10/02 02:20:00;;;;;;;;;6.67;6.67;;;;;16.54;nan;100564.63;4861214;29;44836;-84
2021/10/02 02:22:26;;;;;;;;;5.67;5.67;;;;;16.67;nan;100596.66;4877273;28;44870;-84
2021/10/02 02:24:58;;;;;;;;;7.33;7.33;;;;;16.46;nan;100550.41;4877567;28;45455;-84
2021/10/02 02:28:21;;;;;;;;;7.67;6.67;;;;;16.93;nan;100597.22;4861446;29;46781;-84
2021/10/02 02:30:50;;;;;;;;;5.67;5.67;;;;;16.45;nan;100553.09;4878497;28;44880;-83
2021/10/02 02:33:38;;;;;;;;;;;;;;;;;;;;;
2021/10/02 02:36:16;;;;;;;;;7.67;5.00;;;;;16.81;nan;100570.53;4875880;28;65884;-84
2021/10/02 02:39:05;;;;;;;;;6.67;5.00;;;;;16.87;nan;100559.72;4837054;29;47234;-84
2021/10/02 02:41:41;;;;;;;;;4.33;4.00;;;;;16.90;nan;100564.13;4838415;29;45403;-84
2021/10/02 02:44:31;;;;;;;;;5.33;4.33;;;;;16.47;nan;100529.81;4838480;29;44829;-84
2021/10/02 02:47:26;;;;;;;;;3.00;3.00;;;;;16.59;nan;100529.66;4838475;29;45564;-84
2021/10/02 02:50:07;;;;;;;;;6.00;4.67;;;;;16.62;nan;100539.44;4836656;29;46417;-84
2021/10/02 02:52:51;;;;;;;;;4.00;4.00;;;;;16.71;nan;100550.06;4837158;29;45586;-84
2021/10/02 02:55:33;;;;;;;;;4.33;4.00;;;;;16.82;nan;100558.00;4836837;29;45611;-84
2021/10/02 02:58:07;;;;;;;;;5.00;4.00;;;;;16.82;nan;100536.50;4837370;29;45754;-84
2021/10/02 03:01:24;;;;;;;;;4.00;4.00;;;;;16.87;nan;100559.72;4837823;29;45059;-84
2021/10/02 03:03:55;;;;;;;;;7.00;5.00;;;;;16.75;nan;100559.84;4848277;29;45594;-84
2021/10/02 03:06:45;;;;;;;;;6.00;6.00;;;;;16.56;nan;100510.88;4858638;29;44849;-84
2021/10/02 03:12:42;;;;;;;;;6.33;5.33;;;;;16.76;nan;100507.91;4876276;28;45427;-84
2021/10/02 03:15:14;;;;;;;;;5.33;5.00;;;;;16.85;nan;100518.56;4889497;28;45516;-84
2021/10/02 03:17:51;;;;;;;;;5.00;5.00;;;;;16.91;nan;100531.88;4865638;28;45504;-85
2021/10/02 03:20:23;;;;;;;;;6.33;5.33;;;;;16.82;nan;100531.13;4858619;29;45420;-84
2021/10/02 03:25:40;;;;;;;;;7.00;5.33;;;;;16.72;nan;100527.66;4875091;28;44850;-84
2021/10/02 03:28:17;;;;;;;;;5.33;5.33;;;;;16.88;nan;100501.50;4875787;28;45399;-85
2021/10/02 03:31:13;;;;;;;;;6.67;5.33;;;;;16.96;nan;100513.88;4859196;29;45487;-84
2021/10/02 03:33:53;;;;;;;;;7.00;7.00;;;;;16.71;nan;100491.00;4874294;28;46115;-84
2021/10/02 03:36:22;;;;;;;;;7.00;5.67;;;;;16.46;nan;100475.25;4874913;28;45417;-85
2021/10/02 03:38:53;;;;;;;;;7.00;7.00;;;;;16.65;nan;100478.53;4877475;28;44796;-85
2021/10/02 03:41:22;;;;;;;;;7.00;7.00;;;;;16.49;nan;100493.09;4876612;28;45596;-84
2021/10/02 03:43:51;;;;;;;;;6.33;6.33;;;;;16.49;nan;100477.88;4860154;29;47378;-84
2021/10/02 03:46:43;;;;;;;;;11.33;9.00;;;;;16.44;nan;100466.34;4877964;28;45416;-84
2021/10/02 03:49:27;;;;;;;;;10.00;8.00;;;;;16.18;nan;100448.78;4860511;29;45450;-84
2021/10/02 03:52:09;;;;;;;;;;;;;;;;;;;;;
2021/10/02 03:54:45;;;;;;;;;9.33;9.33;;;;;16.62;nan;100472.31;4875333;28;74413;-84
2021/10/02 03:57:14;;;;;;;;;10.67;9.67;;;;;16.43;nan;100485.13;4872072;28;45514;-84
2021/10/02 03:59:43;;;;;;;;;8.67;8.67;;;;;16.43;nan;100480.66;4858009;29;45405;-84
2021/10/02 04:05:26;;;;;;;;;10.67;9.33;;;;;16.34;nan;100472.72;4857687;29;45471;-84
2021/10/02 04:07:51;;;;;;;;;12.67;11.00;;;;;16.25;nan;100435.28;4841414;29;45415;-84
2021/10/02 04:13:45;;;;;;;;;10.67;9.33;;;;;16.39;nan;100435.97;4858690;29;44826;-85
2021/10/02 04:16:23;;;;;;;;;13.67;13.67;;;;;16.39;nan;100446.72;4856822;29;47221;-84
2021/10/02 04:18:51;;;;;;;;;10.67;10.00;;;;;16.40;nan;100470.84;4874974;29;45438;-84
2021/10/02 04:21:27;;;;;;;;;13.00;13.00;;;;;16.49;nan;100477.88;4875741;29;45508;-84
2021/10/02 04:27:17;;;;;;;;;13.33;11.33;;;;;16.55;nan;100442.88;4874395;28;45398;-84
2021/10/02 04:30:03;;;;;;;;;13.67;10.33;;;;;16.62;nan;100464.28;4876924;28;44902;-84
2021/10/02 04:32:56;;;;;;;;;12.00;10.33;;;;;16.83;nan;100458.59;4817156;29;45792;-84
2021/10/02 04:35:44;;;;;;;;;15.67;14.00;;;;;16.99;nan;100473.56;4803435;29;45416;-84
2021/10/02 04:38:15;;;;;;;;;10.33;9.33;;;;;16.62;nan;100443.66;4802247;29;45686;-84
2021/10/02 04:40:46;;;;;;;;;13.33;11.33;;;;;16.85;nan;100483.63;4819818;29;45561;-84
2021/10/02 04:43:21;;;;;;;;;13.33;11.67;;;;;16.78;nan;100449.69;4820220;29;45247;-84
2021/10/02 04:45:59;;;;;;;;;11.00;11.00;;;;;16.88;nan;100454.03;4819815;29;45158;-84
2021/10/02 04:51:21;;;;;;;;;14.33;13.00;;;;;16.81;nan;100447.00;4820216;29;45521;-84
2021/10/02 04:54:03;;;;;;;;;9.67;9.33;;;;;17.25;nan;100468.63;4805276;29;44990;-84
2021/10/02 04:56:34;;;;;;;;;11.67;10.33;;;;;16.85;nan;100435.28;4819805;29;45568;-84
2021/10/02 04:59:03;;;;;;;;;10.00;9.67;;;;;16.87;nan;100441.53;4817697;29;46450;-84
2021/10/02 05:01:51;;;;;;;;;9.67;9.67;;;;;17.22;nan;100472.25;4802968;29;45360;-84
2021/10/02 05:07:45;;;;;;;;;11.33;10.33;;;;;17.35;nan;100489.97;4819739;29;45524;-84
2021/10/02 05:10:18;;;;;;;;;11.67;10.00;;;;;17.25;nan;100477.59;4861161;28;47405;-83
2021/10/02 05:12:59;;;;;;;;;12.00;11.00;;;;;17.33;nan;100480.13;4879818;29;44825;-83
2021/10/02 05:15:32;;;;;;;;;8.33;8.33;;;;;17.06;nan;100423.28;4878448;29;45626;-83
2021/10/02 05:18:32;;;;;;;;;11.00;11.00;;;;;17.19;nan;100432.91;4878954;29;45441;-83
2021/10/02 05:21:39;;;;;;;;;7.33;7.33;;;;;17.22;nan;100413.13;4849792;28;45390;-84
2021/10/02 05:24:39;;;;;;;;;;;;;;;;;;;;;
2021/10/02 05:27:44;;;;;;;;;8.00;8.00;;;;;17.33;nan;100437.13;4820414;29;68006;-84
2021/10/02 05:30:54;;;;;;;;;;;;;;;;;;;;;
2021/10/02 05:33:25;;;;;;;;;9.33;9.33;;;;;16.98;nan;100411.78;4818271;29;75881;-83
2021/10/02 05:36:45;;;;;;;;;;;;;;;;;;;;;
2021/10/02 05:42:28;;;;;;;;;12.33;7.67;;;;;16.92;nan;100383.22;4837289;29;44922;-84
2021/10/02 05:45:16;;;;;;;;;10.00;8.00;;;;;17.06;nan;100376.72;4838926;29;46732;-83
2021/10/02 05:48:18;;;;;;;;;;;;;;;;;;;;;
2021/10/02 05:50:49;;;;;;;;;11.00;11.00;;;;;17.03;nan;100387.50;4838324;29;68001;-82
2021/10/02 05:53:23;;;;;;;;;12.00;12.00;;;;;16.94;nan;100373.34;4876830;28;45465;-83
2021/10/02 05:55:53;;;;;;;;;11.33;11.33;;;;;16.86;nan;100377.09;4861462;29;46408;-82
2021/10/02 06:06:04;;;;;;;;;;;;;;;;;;;;;
2021/10/02 06:08:35;;;;;;;;;13.00;13.00;;;;;16.99;nan;100401.00;4836961;29;75317;-86
2021/10/02 06:11:11;;;;;;;;;;;;;;;;;;;;;
2021/10/02 06:13:48;;;;;;;;;8.33;7.00;;;;;17.11;nan;100417.84;4859603;29;68006;-85
2021/10/02 06:16:15;;;;;;;;;8.00;8.00;;;;;16.84;nan;100405.75;4860699;29;45533;-84
2021/10/02 06:18:50;;;;;;;;;8.33;4.67;;;;;17.05;nan;100400.03;4859756;29;46465;-83
2021/10/02 06:21:20;;;;;;;;;5.00;5.00;;;;;17.00;nan;100386.66;4859970;29;44755;-83
2021/10/02 06:23:51;;;;;;;;;7.67;7.67;;;;;17.18;nan;100411.44;4859867;29;45772;-84
2021/10/02 06:26:30;;;;;;;;;6.00;6.00;;;;;17.10;nan;100397.25;4859604;29;45617;-85
2021/10/02 06:29:19;;;;;;;;;6.33;6.33;;;;;17.08;nan;100389.22;4859487;29;46873;-83
2021/10/02 06:32:35;;;;;;;;;;;;;;;;;;;;;
2021/10/02 06:35:41;;;;;;;;;5.67;5.67;;;;;17.22;nan;100396.13;4853205;29;68424;-82
2021/10/02 06:38:08;;;;;;;;;3.33;3.33;;;;;16.80;nan;100357.47;4804675;29;44835;-83
2021/10/02 06:40:57;;;;;;;;;3.00;3.00;;;;;17.25;nan;100394.28;4820651;29;45569;-83
2021/10/02 06:43:37;;;;;;;;;4.00;4.00;;;;;17.18;nan;100384.56;4819053;29;45509;-83
2021/10/02 06:46:07;;;;;;;;;3.00;3.00;;;;;17.14;nan;100374.78;4806157;29;45480;-84
2021/10/02 06:48:45;;;;;;;;;8.00;5.00;;;;;17.16;nan;100381.00;4806135;29;45436;-83
2021/10/02 06:51:41;;;;;;;;;;;;;;;;;;;;;
2021/10/02 06:54:36;;;;;;;;;4.00;4.00;;;;;17.40;nan;100406.53;4817720;29;72201;-83
2021/10/02 06:58:13;;;;;;;;;;;;;;;;;;;;;
2021/10/02 07:01:14;;;;;;;;;;;;;;;;;;;;;
2021/10/02 07:03:52;;;;;;;;;3.00;3.00;;;;;16.91;nan;100348.34;4781122;29;75906;-83
2021/10/02 07:06:52;;;;;;;;;4.33;3.00;;;;;17.35;nan;100377.06;4782409;29;45410;-83
2021/10/02 07:09:40;;;;;;;;;;;;;;;;;;;;;
2021/10/02 07:16:01;;;;;;;;;3.67;2.00;;;;;17.26;nan;100374.53;4801893;29;45880;-83
2021/10/02 07:18:57;;;;;;;;;;;;;;;;;;;;;
2021/10/02 07:25:12;;;;;;;;;2.00;2.00;;;;;17.34;nan;100343.03;4710453;30;45397;-84
2021/10/02 07:28:04;;;;;;;;;;;;;;;;;;;;;
2021/10/02 07:30:38;;;;;;;;;4.00;3.00;;;;;17.31;nan;100336.81;4708438;30;72040;-84
2021/10/02 07:36:24;;;;;;;;;4.00;3.00;;;;;17.49;nan;100333.78;4606118;30;45264;-84
2021/10/02 07:38:49;;;;;;;;;7.00;5.67;;;;;17.57;nan;100330.91;4651239;30;46223;-84
2021/10/02 07:41:25;;;;;;;;;4.67;4.67;;;;;18.01;nan;100355.97;4656440;30;45468;-85
2021/10/02 07:44:14;;;;;;;;;3.00;3.00;;;;;17.96;nan;100309.47;4656599;30;44918;-85
2021/10/02 07:46:54;;;;;;;;;6.33;5.00;;;;;18.19;nan;100339.41;4640861;30;45525;-84
2021/10/02 07:49:25;;;;;;;;;4.00;3.67;;;;;18.19;nan;100350.16;4639243;30;45501;-84
2021/10/02 07:52:34;;;;;;;;;;;;;;;;;;;;;
2021/10/02 07:55:32;;;;;;;;;4.67;3.00;;;;;18.17;nan;100348.44;4637165;30;68959;-83
2021/10/02 07:58:51;;;;;;;;;;;;;;;;;;;;;
2021/10/02 08:02:06;;;;;;;;;2.00;2.00;;;;;17.97;nan;100320.16;4716176;30;74468;-84
2021/10/02 08:05:00;;;;;;;;;4.00;4.00;;;;;17.98;nan;100323.78;4725603;30;45522;-84
2021/10/02 08:11:10;;;;;;;;;3.00;3.00;;;;;17.93;nan;100296.06;4726517;30;45610;-84
2021/10/02 08:13:41;;;;;;;;;3.33;2.00;;;;;18.02;nan;100317.41;4785330;29;45462;-85
2021/10/02 08:16:28;;;;;;;;;1.25;1.00;;;;;17.84;nan;100310.63;4800499;29;45513;-84
2021/10/02 08:19:32;;;;;;;;;;;;;;;;;;;;;
2021/10/02 08:25:02;;;;;;;;;2.00;2.00;;;;;17.75;nan;100276.75;4833667;29;45550;-85
2021/10/02 08:27:34;;;;;;;;;4.33;4.00;;;;;17.86;nan;100278.31;4818150;29;44805;-84
2021/10/02 08:36:16;;;;;;;;;2.50;2.50;;;;;18.03;nan;100257.25;4834119;29;45372;-84
2021/10/02 08:46:13;;;;;;;;;4.00;4.00;;;;;18.50;nan;100263.28;4801383;29;44763;-84
2021/10/02 08:48:49;;;;;;;;;5.00;3.33;;;;;18.38;nan;100255.50;4801435;29;47696;-85
2021/10/02 08:51:26;;;;;;;;;2.67;2.67;;;;;18.72;nan;100290.53;4818134;29;44975;-84
2021/10/02 08:58:17;;;;;;;;;;;;;;;;;;;;;
2021/10/02 09:01:01;;;;;;;;;;;;;;;;;;;;;
2021/10/02 09:03:44;;;;;;;;;5.00;5.00;;;;;18.79;nan;100264.31;4802886;29;72985;-84
2021/10/02 09:06:43;;;;;;;;;3.67;3.67;;;;;18.83;nan;100271.41;4802158;29;45539;-84
2021/10/02 09:09:24;;;;;;;;;3.00;3.00;;;;;18.51;nan;100230.00;4801760;29;45446;-84
2021/10/02 09:12:34;;;;;;;;;5.00;3.00;;;;;18.87;nan;100267.69;4800436;29;46915;-83
2021/10/02 09:15:28;;;;;;;;;2.75;2.75;;;;;18.78;nan;100246.34;4803051;29;45395;-83
2021/10/02 09:18:49;;;;;;;;;;;;;;;;;;;;;
2021/10/02 09:21:26;;;;;;;;;5.00;4.33;;;;;19.32;nan;100210.66;4842006;29;65410;-83
2021/10/02 09:24:43;;;;;;;;;7.33;4.00;;;;;19.65;nan;100220.44;4843117;29;46674;-84
2021/10/02 09:27:31;;;;;;;;;4.00;3.00;;;;;19.73;nan;100197.75;4826012;29;45442;-83
2021/10/02 09:33:33;;;;;;;;;5.00;3.00;;;;;19.83;nan;100197.44;4838269;29;45497;-83
2021/10/02 09:36:48;;;;;;;;;4.67;4.00;;;;;19.97;nan;100190.63;4862610;29;47178;-84
2021/10/02 09:39:23;;;;;;;;;3.00;3.00;;;;;19.76;nan;100140.97;4862398;29;45444;-83
2021/10/02 09:42:11;;;;;;;;;;;;;;;;;;;;;
2021/10/02 09:49:11;;;;;;;;;3.50;3.50;;;;;20.35;nan;100106.53;4860195;29;45389;-84
2021/10/02 09:52:01;;;;;;;;;3.75;3.00;;;;;20.41;nan;100090.09;4839673;29;44867;-84
2021/10/02 09:54:40;;;;;;;;;3.50;3.50;;;;;20.85;nan;100109.19;4783981;29;45457;-84
2021/10/02 09:57:55;;;;;;;;;4.33;3.67;;;;;20.92;nan;100104.44;4767886;29;45879;-83
2021/10/02 10:08:05;;;;;;;;;;;;;;;;;;;;;
2021/10/02 10:14:27;;;;;;;;;;;;;;;;;;;;;
2021/10/02 10:17:15;;;;;;;;;3.67;3.00;;;;;21.22;nan;100029.31;4761679;29;71052;-83
2021/10/02 10:19:46;;;;;;;;;0.33;0.00;;;;;21.37;nan;100014.31;4747708;29;45414;-82
2021/10/02 10:23:07;;;;;;;;;2.33;2.33;;;;;21.42;nan;100025.78;4746370;30;45468;-83
2021/10/02 10:25:33;;;;;;;;;4.33;2.67;;;;;21.18;nan;100011.47;4727116;30;45663;-83
2021/10/02 10:28:29;;;;;;;;;;;;;;;;;;;;;
2021/10/02 10:38:25;;;;;;;;;2.25;2.25;;;;;21.47;nan;100017.50;4710531;30;44948;-84
2021/10/02 10:41:11;;;;;;;;;3.50;3.50;;;;;21.77;nan;100026.13;4693903;30;45498;-84
2021/10/02 10:43:42;;;;;;;;;2.50;2.00;;;;;22.03;nan;100056.59;4691881;30;44944;-84
2021/10/02 10:46:39;;;;;;;;;3.25;3.25;;;;;22.02;nan;100033.19;4719842;30;45440;-84
2021/10/02 10:49:36;;;;;;;;;3.00;3.00;;;;;22.04;nan;100012.34;4709768;30;46599;-84
2021/10/02 10:52:05;;;;;;;;;3.75;2.00;;;;;21.82;nan;100017.81;4745213;30;45575;-84
2021/10/02 10:55:08;;;;;;;;;5.00;3.25;;;;;21.92;nan;100008.34;4747456;30;45489;-84
2021/10/02 11:05:21;;;;;;;;;2.00;2.00;;;;;21.98;nan;99989.13;4747943;29;45307;-84
2021/10/02 11:12:00;;;;;;;;;;;;;;;;;;;;;
2021/10/02 11:15:10;;;;;;;;;2.00;2.00;;;;;21.96;nan;99982.91;4844669;29;74064;-84
2021/10/02 11:17:53;;;;;;;;;1.33;1.33;;;;;21.63;nan;99942.84;4840081;29;45603;-84
2021/10/02 11:21:22;;;;;;;;;;;;;;;;;;;;;
2021/10/02 11:27:28;;;;;;;;;2.33;2.00;;;;;21.69;nan;99922.75;4800223;29;45218;-84
2021/10/02 11:30:36;;;;;;;;;;;;;;;;;;;;;
2021/10/02 11:33:42;;;;;;;;;3.00;3.00;;;;;21.78;nan;99890.72;4744337;30;68830;-84
2021/10/02 11:40:08;;;;;;;;;3.00;3.00;;;;;21.78;nan;99879.91;4730259;30;45997;-84
2021/10/02 11:43:40;;;;;;;;;4.00;3.00;;;;;22.02;nan;99882.44;4745110;29;45429;-83
2021/10/02 11:46:35;;;;;;;;;4.33;3.33;;;;;22.21;nan;99900.50;4729535;30;45374;-84
2021/10/02 11:49:39;;;;;;;;;;;;;;;;;;;;;
2021/10/02 11:52:57;;;;;;;;;3.00;2.67;;;;;21.92;nan;99854.03;4738405;30;75691;-84
2021/10/02 11:55:59;;;;;;;;;3.33;3.33;;;;;22.07;nan;99883.06;4745399;30;44901;-83
2021/10/02 11:59:04;;;;;;;;;4.67;4.67;;;;;21.70;nan;99840.63;4757355;29;45481;-83
2021/10/02 12:01:58;;;;;;;;;;;;;;;;;;;;;
2021/10/02 12:04:40;;;;;;;;;3.67;3.67;;;;;21.57;nan;99852.00;4734141;30;75186;-84
2021/10/02 12:07:18;;;;;;;;;2.00;2.00;;;;;21.27;nan;99808.25;4741041;30;44797;-84
2021/10/02 12:31:15;;;;;;;;;3.67;3.67;;;;;20.96;nan;99790.69;4874141;29;45526;-83
2021/10/02 12:33:45;;;;;;;;;3.33;3.00;;;;;20.74;nan;99792.56;4873971;29;45499;-83
2021/10/02 12:37:19;;;;;;;;;4.33;2.67;;;;;21.22;nan;99828.34;4874949;29;45599;-83
2021/10/02 12:43:38;;;;;;;;;3.33;3.33;;;;;21.16;nan;99813.25;4766672;29;45377;-83
2021/10/02 12:47:07;;;;;;;;;;;;;;;;;;;;;
2021/10/02 12:54:31;;;;;;;;;;;;;;;;;;;;;
2021/10/02 12:57:34;;;;;;;;;3.00;3.00;;;;;21.13;nan;99754.81;4637891;30;72398;-83
2021/10/02 13:00:31;;;;;;;;;4.00;4.00;;;;;21.05;nan;99739.88;4635317;30;44899;-83
2021/10/02 13:03:00;;;;;;;;;4.00;4.00;;;;;20.82;nan;99711.16;4689974;30;45948;-83
2021/10/02 13:06:06;;;;;;;;;4.33;4.33;;;;;20.82;nan;99698.53;4689869;30;45429;-84
2021/10/02 13:09:02;;;;;;;;;5.00;4.00;;;;;20.83;nan;99713.81;4703281;30;45554;-83
2021/10/02 13:11:46;;;;;;;;;4.67;3.00;;;;;20.97;nan;99724.88;4694956;30;45876;-84
2021/10/02 13:21:07;;;;;;;;;5.00;5.00;;;;;20.56;nan;99641.13;4690127;30;45555;-83
2021/10/02 13:26:46;;;;;;;;;3.00;3.00;;;;;20.77;nan;99638.44;4692303;30;45859;-83
2021/10/02 13:29:27;;;;;;;;;2.67;2.67;;;;;20.66;nan;99619.97;4694289;30;47011;-83
2021/10/02 13:35:38;;;;;;;;;;;;;;;;;;;;;
2021/10/02 13:41:46;;;;;;;;;;;;;;;;;;;;;
2021/10/02 13:44:33;;;;;;;;;5.67;5.67;;;;;20.52;nan;99587.28;4783128;29;71933;-83
2021/10/02 13:47:48;;;;;;;;;;;;;;;;;;;;;
2021/10/02 13:50:39;;;;;;;;;;;;;;;;;;;;;
2021/10/02 13:54:25;;;;;;;;;6.00;5.00;;;;;20.54;nan;99591.69;4770303;29;74428;-83
2021/10/02 13:57:08;;;;;;;;;5.00;5.00;;;;;20.40;nan;99580.63;4768409;29;45470;-83
2021/10/02 14:06:18;;;;;;;;;4.00;4.00;;;;;20.19;nan;99525.75;4715836;30;45768;-84
2021/10/02 14:08:53;;;;;;;;;5.00;3.67;;;;;20.12;nan;99548.59;4716445;30;45912;-83
2021/10/02 14:11:22;;;;;;;;;6.33;5.00;;;;;19.86;nan;99517.34;4713061;30;44922;-83
2021/10/02 14:17:18;;;;;;;;;;;;;;;;;;;;;
2021/10/02 14:20:32;;;;;;;;;6.00;4.00;;;;;19.98;nan;99482.59;4762612;29;72080;-83
2021/10/02 14:33:47;;;;;;;;;2.67;2.67;;;;;20.01;nan;99492.38;4784663;29;44905;-83
2021/10/02 14:36:56;;;;;;;;;6.00;5.00;;;;;20.03;nan;99479.69;4783203;29;45452;-83
2021/10/02 14:40:49;;;;;;;;;;;;;;;;;;;;;
2021/10/02 14:43:25;;;;;;;;;6.00;5.67;;;;;19.86;nan;99437.28;4761311;29;73882;-83
2021/10/02 14:46:03;;;;;;;;;6.33;5.00;;;;;19.95;nan;99449.47;4762089;29;45752;-83
2021/10/02 14:49:00;;;;;;;;;;;;;;;;;;;;;
2021/10/02 14:51:26;;;;;;;;;5.33;5.33;;;;;19.59;nan;99406.97;4760897;29;65066;-83
2021/10/02 14:54:21;;;;;;;;;5.33;5.33;;;;;19.84;nan;99411.31;4761115;29;45143;-83
2021/10/02 15:00:47;;;;;;;;;5.00;5.00;;;;;19.89;nan;99399.34;4762362;29;45628;-84
2021/10/02 15:03:39;;;;;;;;;;;;;;;;;;;;;
2021/10/02 15:06:56;;;;;;;;;;;;;;;;;;;;;
2021/10/02 15:12:50;;;;;;;;;6.00;5.00;;;;;19.66;nan;99326.69;4797411;29;45450;-84
2021/10/02 15:15:31;;;;;;;;;5.33;5.33;;;;;19.70;nan;99328.28;4782108;29;45509;-84
2021/10/02 15:18:14;;;;;;;;;;;;;;;;;;;;;
2021/10/02 15:20:51;;;;;;;;;6.33;5.00;;;;;19.69;nan;99316.63;4837956;29;72928;-84
2021/10/02 15:23:33;;;;;;;;;5.67;5.67;;;;;19.92;nan;99358.75;4853520;29;45448;-84
2021/10/02 15:26:15;;;;;;;;;5.67;4.00;;;;;19.70;nan;99302.19;4839020;29;45428;-84
2021/10/02 15:29:04;;;;;;;;;5.00;5.00;;;;;19.91;nan;99329.13;4852997;29;46744;-84
2021/10/02 15:32:12;;;;;;;;;4.00;4.00;;;;;19.70;nan;99283.31;4852640;29;45522;-84
2021/10/02 15:35:04;;;;;;;;;5.00;5.00;;;;;19.87;nan;99314.03;4853808;29;45530;-84
2021/10/02 15:37:44;;;;;;;;;5.00;5.00;;;;;19.67;nan;99299.63;4848340;29;45428;-84
2021/10/02 15:40:31;;;;;;;;;7.00;3.67;;;;;19.84;nan;99300.72;4871836;29;46848;-84
2021/10/02 15:43:03;;;;;;;;;5.00;5.00;;;;;19.63;nan;99265.63;4872948;29;44857;-84
2021/10/02 15:49:40;;;;;;;;;;;;;;;;;;;;;
2021/10/02 15:52:43;;;;;;;;;;;;;;;;;;;;;
2021/10/02 15:56:17;;;;;;;;;;;;;;;;;;;;;
2021/10/02 16:05:39;;;;;;;;;4.00;4.00;;;;;19.99;nan;99221.72;4799788;29;45414;-84
2021/10/02 16:08:14;;;;;;;;;4.00;4.00;;;;;20.04;nan;99216.09;4799211;29;45461;-84
2021/10/02 16:10:52;;;;;;;;;3.00;3.00;;;;;20.06;nan;99246.59;4798480;29;45520;-84
2021/10/02 16:14:01;;;;;;;;;;;;;;;;;;;;;
2021/10/02 16:16:52;;;;;;;;;6.67;4.67;;;;;19.99;nan;99213.59;4796180;29;74993;-84
2021/10/02 16:19:45;;;;;;;;;3.67;3.67;;;;;20.21;nan;99207.16;4781281;29;45648;-84
2021/10/02 16:25:48;;;;;;;;;4.00;3.00;;;;;20.21;nan;99215.25;4796077;29;45802;-84
2021/10/02 16:32:15;;;;;;;;;3.00;3.00;;;;;20.24;nan;99190.78;4796198;29;45984;-84
2021/10/02 16:35:15;;;;;;;;;3.00;3.00;;;;;20.34;nan;99214.56;4796849;29;45467;-83
2021/10/02 16:38:12;;;;;;;;;4.67;4.67;;;;;20.42;nan;99218.69;4797636;29;45464;-84
2021/10/02 16:40:48;;;;;;;;;4.00;4.00;;;;;19.85;nan;99178.34;4838966;29;46168;-84
2021/10/02 16:51:02;;;;;;;;;4.00;4.00;;;;;20.02;nan;99173.00;4778800;29;45546;-83
2021/10/02 16:53:56;;;;;;;;;4.00;4.00;;;;;20.14;nan;99179.59;4777796;29;46823;-84
2021/10/02 16:56:51;;;;;;;;;;;;;;;;;;;;;
2021/10/02 16:59:19;;;;;;;;;5.00;4.67;;;;;19.97;nan;99161.53;4776310;29;68636;-84
2021/10/02 17:01:53;;;;;;;;;5.67;4.67;;;;;20.08;nan;99186.19;4762675;29;45550;-84
2021/10/02 17:04:36;;;;;;;;;3.00;3.00;;;;;20.06;nan;99157.53;4776978;29;46741;-84
2021/10/02 17:10:45;;;;;;;;;2.00;2.00;;;;;20.10;nan;99181.59;4780518;29;45408;-84
2021/10/02 17:13:32;;;;;;;;;;;;;;;;;;;;;
2021/10/02 17:16:32;;;;;;;;;5.33;5.33;;;;;19.77;nan;99122.06;4781725;29;75507;-84
2021/10/02 17:26:32;;;;;;;;;;;;;;;;;;;;;
2021/10/02 17:29:13;;;;;;;;;4.00;4.00;;;;;20.11;nan;99136.56;4798227;29;75948;-84
2021/10/02 17:35:21;;;;;;;;;4.33;4.33;;;;;20.10;nan;99119.50;4800058;29;45577;-83
2021/10/02 17:41:10;;;;;;;;;4.00;4.00;;;;;20.12;nan;99116.72;4800488;29;45385;-83
2021/10/02 17:44:08;;;;;;;;;2.67;2.67;;;;;20.12;nan;99112.19;4791606;29;45634;-83
2021/10/02 17:46:37;;;;;;;;;3.00;3.00;;;;;19.71;nan;99077.41;4771587;29;44864;-83
2021/10/02 17:49:48;;;;;;;;;4.67;4.00;;;;;20.08;nan;99097.13;4781579;29;45560;-83
2021/10/02 17:52:50;;;;;;;;;4.67;4.67;;;;;19.98;nan;99083.22;4781975;29;45810;-84
2021/10/02 17:55:37;;;;;;;;;;;;;;;;;;;;;
2021/10/02 17:58:35;;;;;;;;;7.00;7.00;;;;;20.17;nan;99101.16;4801372;29;68843;-83
2021/10/02 18:14:51;;;;;;;;;4.00;4.00;;;;;20.01;nan;99033.59;4744462;29;45538;-83
2021/10/02 18:17:25;;;;;;;;;3.00;3.00;;;;;19.99;nan;99035.50;4747226;30;46694;-83
2021/10/02 18:20:17;;;;;;;;;4.00;4.00;;;;;20.25;nan;99073.78;4747149;30;45400;-84
2021/10/02 18:22:58;;;;;;;;;4.33;4.33;;;;;19.83;nan;99012.97;4759054;29;45961;-84
2021/10/02 18:29:04;;;;;;;;;;;;;;;;;;;;;
2021/10/02 18:32:01;;;;;;;;;4.00;3.00;;;;;20.08;nan;99037.75;4727870;30;72437;-84
2021/10/02 18:34:41;;;;;;;;;5.00;5.00;;;;;20.12;nan;99041.16;4723748;30;45464;-85
2021/10/02 18:37:08;;;;;;;;;3.00;3.00;;;;;19.81;nan;99028.38;4731378;30;45602;-84
2021/10/02 18:40:12;;;;;;;;;4.00;4.00;;;;;20.08;nan;99040.44;4732397;30;46087;-84
2021/10/02 18:43:15;;;;;;;;;;;;;;;;;;;;;
2021/10/02 18:46:14;;;;;;;;;3.00;3.00;;;;;20.05;nan;99035.19;4725424;30;69336;-84
2021/10/02 18:49:03;;;;;;;;;5.33;3.67;;;;;20.03;nan;99039.78;4779649;29;45599;-84
2021/10/02 18:51:45;;;;;;;;;4.67;4.67;;;;;20.10;nan;99070.94;4799851;29;46608;-83
2021/10/02 18:54:32;;;;;;;;;8.00;7.00;;;;;20.09;nan;99060.19;4786487;29;45377;-84
2021/10/02 18:57:58;;;;;;;;;;;;;;;;;;;;;
2021/10/02 19:01:04;;;;;;;;;5.67;5.67;;;;;19.80;nan;99016.72;4795452;29;45443;-83
2021/10/02 19:03:51;;;;;;;;;5.00;5.00;;;;;20.08;nan;99083.63;4797641;29;45466;-83
2021/10/02 19:06:33;;;;;;;;;5.00;4.00;;;;;19.96;nan;99033.84;4845316;29;45519;-83
2021/10/02 19:09:21;;;;;;;;;2.33;2.33;;;;;19.78;nan;99011.41;4853476;29;45633;-83
2021/10/02 19:12:18;;;;;;;;;4.00;3.00;;;;;20.17;nan;99053.44;4837643;29;45396;-84
2021/10/02 19:14:46;;;;;;;;;5.00;5.00;;;;;19.98;nan;99041.88;4852584;29;46919;-84
2021/10/02 19:21:14;;;;;;;;;3.33;3.00;;;;;19.99;nan;99049.00;4854798;29;45872;-84
2021/10/02 19:23:47;;;;;;;;;5.00;3.00;;;;;19.80;nan;99040.13;4845879;29;45440;-83
2021/10/02 19:26:26;;;;;;;;;6.00;6.00;;;;;19.90;nan;99046.81;4854644;29;45499;-83
2021/10/02 19:33:16;;;;;;;;;;;;;;;;;;;;;
2021/10/02 19:36:03;;;;;;;;;;;;;;;;;;;;;
2021/10/02 19:39:01;;;;;;;;;;;;;;;;;;;;;
2021/10/02 19:41:54;;;;;;;;;;;;;;;;;;;;;
2021/10/02 19:47:45;;;;;;;;;4.67;4.67;;;;;19.72;nan;99017.09;4798885;29;45381;-83